Time;durP1;ratioP1;P1;durP2;ratioP2;P2;SDS_P1;SDS_P2;PMS_P1;PMS_P2;Temp;Humidity;BMP_temperature;BMP_pressure;BME280_temperature;BME280_humidity;BME280_pressure;Samples;Min_cycle;Max_cycle;Signal;HPM_P1;HPM_P2
2022/11/03 00:01:44;;;;;;;;;;;;;;;6.90;67.41;101363.09;5036415;28;20287;-31
2022/11/03 00:04:10;;;;;;;;;;;;;;;6.86;67.44;101374.41;5054472;28;19994;-31
2022/11/03 00:06:36;;;;;;;;;;;;;;;6.79;67.50;101378.66;5054731;28;19913;-31
2022/11/03 00:09:02;;;;;;;;;;;;;;;6.75;67.38;101369.88;5054666;28;19940;-31
2022/11/03 00:11:27;;;;;;;;;;;;;;;6.71;67.74;101378.53;5054562;28;19959;-31
2022/11/03 00:13:53;;;;;;;;;;;;;;;6.68;67.55;101378.47;5054434;28;19917;-31
2022/11/03 00:16:18;;;;;;;;;;;;;;;6.65;67.55;101378.41;5038844;28;19913;-31
2022/11/03 00:18:44;;;;;;;;;;;;;;;6.65;67.43;101375.78;5058682;28;19913;-31
2022/11/03 00:21:11;;;;;;;;;;;;;;;6.60;67.43;101372.22;5056978;28;19913;-31
2022/11/03 00:23:37;;;;;;;;;;;;;;;6.56;67.47;101368.63;5060897;28;19913;-31
2022/11/03 00:26:16;;;;;;;;;;;;;;;6.55;67.52;101377.34;5043479;28;19919;-31
2022/11/03 00:28:43;;;;;;;;;;;;;;;6.53;67.35;101374.69;5060769;28;20377;-31
2022/11/03 00:31:09;;;;;;;;;;;;;;;6.52;67.68;101372.94;5042501;28;19916;-31
2022/11/03 00:33:35;;;;;;;;;;;;;;;6.51;67.36;101370.28;5061427;28;19919;-31
2022/11/03 00:36:00;;;;;;;;;;;;;;;6.48;67.35;101365.00;5060609;28;19999;-31
2022/11/03 00:38:26;;;;;;;;;;;;;;;6.46;67.54;101367.56;5027270;28;20011;-32
2022/11/03 00:40:59;;;;;;;;;;;;;;;6.41;67.29;101367.47;5057916;28;19997;-32
2022/11/03 00:43:25;;;;;;;;;;;;;;;6.36;67.58;101363.00;5056930;28;19916;-32
2022/11/03 00:45:51;;;;;;;;;;;;;;;6.33;67.64;101376.06;5057342;28;19913;-31
2022/11/03 00:48:31;;;;;;;;;;;;;;;6.30;67.53;101371.63;5057558;28;19940;-32
2022/11/03 00:51:00;;;;;;;;;;;;;;;6.28;67.70;101374.22;5060267;28;20234;-32
2022/11/03 00:53:25;;;;;;;;;;;;;;;6.25;67.75;101368.94;5060544;28;20031;-32
2022/11/03 00:55:50;;;;;;;;;;;;;;;6.21;68.10;101361.88;5059396;28;19995;-31
2022/11/03 00:58:16;;;;;;;;;;;;;;;6.19;67.74;101357.44;5060726;28;19916;-31
2022/11/03 01:00:41;;;;;;;;;;;;;;;6.17;67.80;101360.00;5059099;28;19917;-31
2022/11/03 01:03:06;;;;;;;;;;;;;;;6.14;68.22;101358.22;5060192;28;20344;-32
2022/11/03 01:08:15;;;;;;;;;;;;;;;6.09;68.31;101345.88;5059068;28;20034;-30
2022/11/03 01:11:42;;;;;;;;;;;;;;;6.08;67.91;101350.25;5057894;28;20445;-31
2022/11/03 01:13:26;;;;;;;;;;;;;;;6.05;67.91;101344.94;5058620;28;19959;-31
2022/11/03 01:15:51;;;;;;;;;;;;;;;6.03;68.10;101347.53;5057994;28;20381;-31
2022/11/03 01:18:16;;;;;;;;;;;;;;;6.01;68.58;101349.19;5057126;28;19917;-31
2022/11/03 01:20:41;;;;;;;;;;;;;;;5.97;68.10;101342.13;5057996;28;20371;-30
2022/11/03 01:23:07;;;;;;;;;;;;;;;5.95;68.43;101341.22;5053143;28;20384;-31
2022/11/03 01:25:34;;;;;;;;;;;;;;;5.94;68.59;101336.84;5056167;28;19913;-31
2022/11/03 01:28:01;;;;;;;;;;;;;;;5.93;68.19;101340.28;5058040;28;19927;-32
2022/11/03 01:30:26;;;;;;;;;;;;;;;5.92;68.02;101333.31;5055033;28;19978;-32
2022/11/03 01:32:51;;;;;;;;;;;;;;;5.90;68.42;101337.59;5038466;28;20320;-31
2022/11/03 01:35:16;;;;;;;;;;;;;;;5.88;68.25;101335.00;5056541;28;19912;-31
2022/11/03 01:37:41;;;;;;;;;;;;;;;5.86;68.88;101323.59;5055968;28;19920;-32
2022/11/03 01:40:08;;;;;;;;;;;;;;;5.82;68.00;101316.53;5057284;28;19924;-31
2022/11/03 01:42:33;;;;;;;;;;;;;;;5.80;68.78;101314.72;5056514;28;19917;-33
2022/11/03 01:44:58;;;;;;;;;;;;;;;5.78;68.63;101310.31;5056546;28;20403;-32
2022/11/03 01:47:26;;;;;;;;;;;;;;;5.78;68.31;101315.56;5038359;28;19920;-32
2022/11/03 01:49:55;;;;;;;;;;;;;;;5.77;68.19;101312.94;5056709;28;19982;-32
2022/11/03 01:52:20;;;;;;;;;;;;;;;5.75;68.72;101305.03;5037740;28;19913;-32
2022/11/03 01:54:47;;;;;;;;;;;;;;;5.74;68.82;101305.88;5056643;28;20340;-31
2022/11/03 01:57:14;;;;;;;;;;;;;;;5.72;68.79;101309.31;5054317;28;19917;-31
2022/11/03 01:59:40;;;;;;;;;;;;;;;5.70;68.83;101298.81;5055766;28;19935;-31
2022/11/03 02:02:05;;;;;;;;;;;;;;;5.67;68.67;101301.34;5055412;28;20345;-31
2022/11/03 02:04:31;;;;;;;;;;;;;;;5.66;68.40;101304.84;5055740;28;20011;-32
2022/11/03 02:07:18;;;;;;;;;;;;;;;5.65;68.46;101298.75;5038581;28;19955;-31
2022/11/03 02:09:43;;;;;;;;;;;;;;;5.66;68.56;101289.13;5054404;28;19927;-31
2022/11/03 02:12:08;;;;;;;;;;;;;;;5.65;68.96;101282.13;5055570;28;19917;-31
2022/11/03 02:14:38;;;;;;;;;;;;;;;5.64;68.64;101293.47;5036667;28;20004;-32
2022/11/03 02:17:05;;;;;;;;;;;;;;;5.60;68.82;101281.16;5054640;28;20073;-32
2022/11/03 02:19:30;;;;;;;;;;;;;;;5.60;68.62;101274.19;5037460;28;19913;-32
2022/11/03 02:21:59;;;;;;;;;;;;;;;5.58;68.42;101261.91;5055477;28;19936;-31
2022/11/03 02:24:29;;;;;;;;;;;;;;;5.55;68.42;101254.91;5055959;28;19913;-31
2022/11/03 02:26:54;;;;;;;;;;;;;;;5.54;68.40;101254.84;5037215;28;19999;-32
2022/11/03 02:29:20;;;;;;;;;;;;;;;5.54;68.64;101247.91;5036967;28;20063;-33
2022/11/03 02:31:47;;;;;;;;;;;;;;;5.53;68.43;101248.72;5037336;28;19966;-31
2022/11/03 02:34:16;;;;;;;;;;;;;;;5.50;68.73;101246.94;5036016;28;20006;-31
2022/11/03 02:37:01;;;;;;;;;;;;;;;5.50;68.76;101246.03;5055295;28;19913;-33
2022/11/03 02:39:37;;;;;;;;;;;;;;;5.47;68.81;101233.78;5035120;28;19944;-31
2022/11/03 02:42:02;;;;;;;;;;;;;;;5.46;68.78;101231.13;5035921;28;20066;-32
2022/11/03 02:44:28;;;;;;;;;;;;;;;5.42;68.66;101232.81;5054123;28;19956;-32
2022/11/03 02:46:54;;;;;;;;;;;;;;;5.42;68.98;101232.81;5036178;28;20027;-31
2022/11/03 02:49:20;;;;;;;;;;;;;;;5.40;68.72;101234.50;5035581;28;20404;-31
2022/11/03 02:51:46;;;;;;;;;;;;;;;5.38;69.02;101233.59;5054960;28;19999;-33
2022/11/03 02:54:22;;;;;;;;;;;;;;;5.36;68.58;101222.22;5054262;28;19962;-32
2022/11/03 02:57:10;;;;;;;;;;;;;;;5.35;68.96;101220.44;5036759;28;19913;-32
2022/11/03 02:59:57;;;;;;;;;;;;;;;5.31;68.88;101213.38;5046378;28;20058;-32
2022/11/03 03:02:26;;;;;;;;;;;;;;;5.30;69.27;101207.25;5053625;28;19943;-32
2022/11/03 03:04:55;;;;;;;;;;;;;;;5.30;69.13;101206.41;5037490;28;19913;-32
2022/11/03 03:07:21;;;;;;;;;;;;;;;5.28;69.33;101208.09;5053225;28;19923;-32
2022/11/03 03:09:50;;;;;;;;;;;;;;;5.25;69.24;101211.53;5053768;28;19913;-31
2022/11/03 03:12:18;;;;;;;;;;;;;;;5.23;69.29;101205.38;5043945;28;19913;-33
2022/11/03 03:14:44;;;;;;;;;;;;;;;5.22;69.05;101207.13;5034285;28;19913;-30
2022/11/03 03:17:15;;;;;;;;;;;;;;;5.22;69.54;101201.88;5033326;28;20293;-30
2022/11/03 03:19:46;;;;;;;;;;;;;;;5.22;69.33;101190.53;5015950;28;19962;-31
2022/11/03 03:22:28;;;;;;;;;;;;;;;5.21;69.79;101197.50;5043801;28;20059;-31
2022/11/03 03:24:53;;;;;;;;;;;;;;;5.19;69.42;101191.34;5036668;28;19913;-30
2022/11/03 03:27:18;;;;;;;;;;;;;;;5.19;69.41;101186.13;5052683;28;19974;-31
2022/11/03 03:29:55;;;;;;;;;;;;;;;5.22;69.33;101183.59;5035644;28;19913;-31
2022/11/03 03:32:28;;;;;;;;;;;;;;;5.23;69.50;101185.34;5039033;28;20385;-30
2022/11/03 03:34:57;;;;;;;;;;;;;;;5.23;69.78;101185.34;5056299;28;19912;-31
2022/11/03 03:37:22;;;;;;;;;;;;;;;5.22;69.83;101183.59;5037617;28;19913;-31
2022/11/03 03:39:49;;;;;;;;;;;;;;;5.24;69.23;101175.78;5033376;28;19917;-31
2022/11/03 03:42:16;;;;;;;;;;;;;;;5.25;69.60;101177.53;5034368;28;19914;-33
2022/11/03 03:44:45;;;;;;;;;;;;;;;5.27;69.84;101178.47;5046832;28;19917;-32
2022/11/03 03:47:12;;;;;;;;;;;;;;;5.26;69.82;101174.06;5056732;28;20289;-32
2022/11/03 03:49:37;;;;;;;;;;;;;;;5.23;69.59;101174.88;5038334;28;19925;-32
2022/11/03 03:52:03;;;;;;;;;;;;;;;5.24;69.57;101187.09;5053414;28;19908;-32
2022/11/03 03:54:28;;;;;;;;;;;;;;;5.25;69.42;101186.25;5054143;28;19936;-32
2022/11/03 03:57:03;;;;;;;;;;;;;;;5.25;69.26;101177.53;5054225;28;19976;-33
2022/11/03 03:59:28;;;;;;;;;;;;;;;5.24;69.48;101176.63;5037235;28;20292;-32
2022/11/03 04:01:54;;;;;;;;;;;;;;;5.22;69.75;101173.13;5055978;28;19920;-32
2022/11/03 04:04:19;;;;;;;;;;;;;;;5.22;70.07;101173.13;5055728;28;19940;-32
2022/11/03 04:06:44;;;;;;;;;;;;;;;5.21;69.80;101179.22;5055625;28;19901;-32
2022/11/03 04:09:10;;;;;;;;;;;;;;;5.22;69.50;101173.13;5035651;28;19917;-32
2022/11/03 04:22:34;;;;;;;;;;;;;;;5.21;69.16;101179.22;5052099;28;19975;-31
2022/11/03 04:24:59;;;;;;;;;;;;;;;5.16;69.31;101185.19;5052385;28;20397;-31
2022/11/03 04:27:31;;;;;;;;;;;;;;;5.14;69.28;101174.69;5038191;28;20380;-31
2022/11/03 04:29:58;;;;;;;;;;;;;;;5.16;69.64;101172.13;5039154;28;20032;-32
2022/11/03 04:32:23;;;;;;;;;;;;;;;5.15;69.15;101160.75;5034082;28;19975;-31
2022/11/03 04:34:48;;;;;;;;;;;;;;;5.11;69.08;101161.56;5036327;28;19966;-31
2022/11/03 04:37:14;;;;;;;;;;;;;;;5.12;69.27;101155.47;5020453;28;20290;-32
2022/11/03 04:39:39;;;;;;;;;;;;;;;5.11;68.93;101153.69;5038124;28;19936;-31
2022/11/03 04:42:15;;;;;;;;;;;;;;;5.09;69.58;101144.94;5053975;28;19920;-31
2022/11/03 04:44:40;;;;;;;;;;;;;;;5.09;69.25;101135.38;5034826;28;19917;-31
2022/11/03 04:47:08;;;;;;;;;;;;;;;5.08;69.47;101149.28;5053954;28;19972;-31
2022/11/03 04:49:34;;;;;;;;;;;;;;;5.10;69.31;101146.72;5037495;28;19916;-31
2022/11/03 04:51:59;;;;;;;;;;;;;;;5.11;69.25;101141.50;5052086;28;20394;-31
2022/11/03 04:54:24;;;;;;;;;;;;;;;5.10;69.62;101146.72;5053530;28;19982;-32
2022/11/03 04:56:50;;;;;;;;;;;;;;;5.08;69.67;101130.09;5052808;28;20331;-31
2022/11/03 04:59:15;;;;;;;;;;;;;;;5.13;69.69;101136.28;5053537;28;20374;-32
2022/11/03 05:01:40;;;;;;;;;;;;;;;5.14;69.95;101138.94;5036162;28;19920;-31
2022/11/03 05:04:14;;;;;;;;;;;;;;;5.11;69.62;101128.41;5040555;28;20335;-33
2022/11/03 05:06:39;;;;;;;;;;;;;;;5.12;69.43;101129.31;5055451;28;19920;-30
2022/11/03 05:09:07;;;;;;;;;;;;;;;5.11;70.11;101115.34;5038484;28;20335;-31
2022/11/03 05:11:36;;;;;;;;;;;;;;;5.12;69.57;101111.91;5037712;28;19912;-33
2022/11/03 05:14:03;;;;;;;;;;;;;;;5.14;70.06;101112.78;5058106;28;20365;-32
2022/11/03 05:16:28;;;;;;;;;;;;;;;5.16;69.61;101110.22;5038423;28;20015;-30
2022/11/03 05:18:54;;;;;;;;;;;;;;;5.17;69.99;101105.88;5075664;22;20468;-29
2022/11/03 05:21:20;;;;;;;;;;;;;;;5.18;69.95;101102.41;5044523;28;19933;-29
2022/11/03 05:23:46;;;;;;;;;;;;;;;5.18;69.34;101105.91;5034777;28;20380;-29
2022/11/03 05:26:31;;;;;;;;;;;;;;;5.19;69.87;101102.44;5034885;28;20004;-29
2022/11/03 05:29:00;;;;;;;;;;;;;;;5.18;70.15;101102.41;5034605;28;20431;-29
2022/11/03 05:31:28;;;;;;;;;;;;;;;5.19;70.26;101084.13;5033959;28;20403;-29
2022/11/03 05:33:55;;;;;;;;;;;;;;;5.19;70.01;101076.28;5054231;28;20373;-29
2022/11/03 05:36:21;;;;;;;;;;;;;;;5.18;69.86;101078.88;5054626;28;19923;-29
2022/11/03 05:38:47;;;;;;;;;;;;;;;5.18;70.03;101077.16;5054257;28;20048;-29
2022/11/03 05:41:22;;;;;;;;;;;;;;;5.16;69.48;101076.22;5053995;28;19999;-29
2022/11/03 05:43:50;;;;;;;;;;;;;;;5.15;70.20;101077.09;5054598;28;19924;-29
2022/11/03 05:46:15;;;;;;;;;;;;;;;5.16;69.67;101068.38;5036039;28;19959;-29
2022/11/03 05:48:42;;;;;;;;;;;;;;;5.17;69.35;101070.13;5035964;28;19971;-29
2022/11/03 05:51:13;;;;;;;;;;;;;;;5.19;69.58;101057.97;5053990;28;20349;-29
2022/11/03 05:53:42;;;;;;;;;;;;;;;5.18;69.33;101066.69;5054251;28;19913;-29
2022/11/03 05:56:09;;;;;;;;;;;;;;;5.19;70.12;101063.22;5036609;28;19913;-29
2022/11/03 05:58:38;;;;;;;;;;;;;;;5.18;70.26;101063.19;5036138;28;19948;-29
2022/11/03 06:01:09;;;;;;;;;;;;;;;5.17;70.17;101064.91;5053712;28;19913;-29
2022/11/03 06:03:34;;;;;;;;;;;;;;;5.17;69.47;101067.50;5035866;28;19917;-29
2022/11/03 06:06:00;;;;;;;;;;;;;;;5.15;69.77;101077.09;5019030;28;19920;-29
2022/11/03 06:08:26;;;;;;;;;;;;;;;5.10;69.41;101069.13;5035021;28;20061;-29
2022/11/03 06:10:52;;;;;;;;;;;;;;;5.12;69.72;101079.63;5034195;28;20335;-30
2022/11/03 06:13:19;;;;;;;;;;;;;;;5.11;69.73;101076.13;5051954;28;19916;-29
2022/11/03 06:15:45;;;;;;;;;;;;;;;5.14;69.80;101084.03;5053933;28;20019;-29
2022/11/03 06:18:14;;;;;;;;;;;;;;;5.12;70.13;101071.78;5053491;28;19931;-30
2022/11/03 06:20:39;;;;;;;;;;;;;;;5.12;70.29;101062.22;5053609;28;20050;-29
2022/11/03 06:23:07;;;;;;;;;;;;;;;5.13;69.84;101068.31;5035724;28;19987;-29
2022/11/03 06:25:35;;;;;;;;;;;;;;;5.13;69.46;101063.06;5035819;28;19913;-29
2022/11/03 06:28:02;;;;;;;;;;;;;;;5.10;69.78;101068.28;5053079;28;19928;-31
2022/11/03 06:30:28;;;;;;;;;;;;;;;5.11;69.91;101060.44;5053150;28;20041;-31
2022/11/03 06:32:54;;;;;;;;;;;;;;;5.11;70.02;101043.88;5053257;28;19912;-31
2022/11/03 06:35:20;;;;;;;;;;;;;;;5.11;70.24;101054.34;5035226;28;19924;-31
2022/11/03 06:37:45;;;;;;;;;;;;;;;5.12;70.09;101043.03;5053293;28;19995;-31
2022/11/03 06:40:31;;;;;;;;;;;;;;;5.10;69.50;101029.91;5053081;28;20377;-29
2022/11/03 06:42:57;;;;;;;;;;;;;;;5.10;69.59;101029.06;5035048;28;20346;-29
2022/11/03 06:45:23;;;;;;;;;;;;;;;5.11;69.61;101022.97;5053261;28;19919;-29
2022/11/03 06:47:48;;;;;;;;;;;;;;;5.12;69.70;101027.34;5052903;28;20008;-29
2022/11/03 06:50:24;;;;;;;;;;;;;;;5.13;69.82;101026.47;5052740;28;20374;-29
2022/11/03 06:52:49;;;;;;;;;;;;;;;5.12;70.00;101019.50;5052870;28;19913;-29
2022/11/03 06:55:18;;;;;;;;;;;;;;;5.14;70.18;101023.03;5034713;28;19912;-29
2022/11/03 06:57:45;;;;;;;;;;;;;;;5.14;70.54;101013.44;5053189;28;20361;-29
2022/11/03 07:00:13;;;;;;;;;;;;;;;5.15;70.48;101011.72;5052986;28;19971;-29
2022/11/03 07:02:55;;;;;;;;;;;;;;;5.14;70.55;101005.59;5052696;28;19913;-29
2022/11/03 07:05:24;;;;;;;;;;;;;;;5.16;70.01;101004.75;5052593;28;19947;-29
2022/11/03 07:07:51;;;;;;;;;;;;;;;5.17;70.26;101006.50;5034831;28;19917;-29
2022/11/03 07:10:16;;;;;;;;;;;;;;;5.16;70.18;101010.84;5052243;28;19917;-30
2022/11/03 07:12:41;;;;;;;;;;;;;;;5.18;70.68;101009.16;5038547;28;19928;-29
2022/11/03 07:15:15;;;;;;;;;;;;;;;5.19;70.54;101010.00;5014887;28;19935;-29
2022/11/03 07:17:40;;;;;;;;;;;;;;;5.20;70.77;101003.94;5021566;28;19944;-29
2022/11/03 07:20:11;;;;;;;;;;;;;;;5.20;70.33;100999.59;5052249;28;19917;-29
2022/11/03 07:22:37;;;;;;;;;;;;;;;5.22;70.30;100997.91;5034506;28;19913;-29
2022/11/03 07:25:02;;;;;;;;;;;;;;;5.24;70.75;100997.94;5051985;28;20063;-29
2022/11/03 07:27:32;;;;;;;;;;;;;;;5.25;70.89;100992.72;5052429;28;19913;-29
2022/11/03 07:30:18;;;;;;;;;;;;;;;5.28;70.80;100998.84;5034070;28;19917;-30
2022/11/03 07:32:43;;;;;;;;;;;;;;;5.30;70.48;100998.00;5051728;28;20050;-30
2022/11/03 07:35:17;;;;;;;;;;;;;;;5.32;70.90;100991.09;5052717;28;20007;-30
2022/11/03 07:37:46;;;;;;;;;;;;;;;5.35;70.80;100992.88;5052184;28;20373;-30
2022/11/03 07:40:15;;;;;;;;;;;;;;;5.37;70.69;100991.19;5051668;28;20012;-32
2022/11/03 07:42:40;;;;;;;;;;;;;;;5.38;70.40;100991.19;5051837;28;19917;-32
2022/11/03 07:45:24;;;;;;;;;;;;;;;5.41;70.99;100985.16;5051958;28;20058;-32
2022/11/03 07:47:50;;;;;;;;;;;;;;;5.44;70.96;100979.94;5051846;28;19916;-32
2022/11/03 07:50:15;;;;;;;;;;;;;;;5.48;70.59;100975.66;5051809;28;20052;-32
2022/11/03 07:52:40;;;;;;;;;;;;;;;5.50;70.77;100979.16;5051861;28;19947;-32
2022/11/03 07:55:08;;;;;;;;;;;;;;;5.57;70.65;100982.78;5051649;28;20406;-32
2022/11/03 07:57:33;;;;;;;;;;;;;;;5.65;70.90;100978.56;5033739;28;20298;-32
2022/11/03 08:00:09;;;;;;;;;;;;;;;5.70;70.62;100976.88;5051835;28;19920;-32
2022/11/03 08:02:46;;;;;;;;;;;;;;;5.75;70.25;100980.47;5033742;28;19912;-32
2022/11/03 08:05:12;;;;;;;;;;;;;;;5.82;70.38;100972.69;5052025;28;19999;-32
2022/11/03 08:07:37;;;;;;;;;;;;;;;5.89;70.44;100966.69;5051854;28;20334;-32
2022/11/03 08:10:03;;;;;;;;;;;;;;;5.95;70.32;100960.66;5051156;28;19913;-32
2022/11/03 08:12:28;;;;;;;;;;;;;;;6.02;70.11;100963.41;5050768;28;19924;-32
2022/11/03 08:14:53;;;;;;;;;;;;;;;6.09;70.36;100963.50;5051948;28;19999;-30
2022/11/03 08:17:18;;;;;;;;;;;;;;;6.15;70.64;100958.38;5051909;28;19919;-30
2022/11/03 08:19:44;;;;;;;;;;;;;;;6.23;70.23;100961.97;5033594;28;19995;-30
2022/11/03 08:22:09;;;;;;;;;;;;;;;6.29;70.09;100946.34;5051402;28;19919;-29
2022/11/03 08:24:34;;;;;;;;;;;;;;;6.38;70.47;100955.19;5033509;28;19916;-29
2022/11/03 08:26:59;;;;;;;;;;;;;;;6.44;70.11;100952.66;5033704;28;19967;-30
2022/11/03 08:29:26;;;;;;;;;;;;;;;6.50;70.25;100931.75;5051515;28;20429;-30
2022/11/03 08:31:52;;;;;;;;;;;;;;;6.58;69.95;100930.97;5051479;28;19920;-30
2022/11/03 08:34:17;;;;;;;;;;;;;;;6.63;69.78;100931.88;5051814;28;20374;-30
2022/11/03 08:36:42;;;;;;;;;;;;;;;6.67;70.20;100925.84;5053947;28;19912;-29
2022/11/03 08:39:07;;;;;;;;;;;;;;;6.73;70.03;100919.78;5055401;28;19913;-30
2022/11/03 08:41:33;;;;;;;;;;;;;;;6.77;70.34;100917.19;5046921;28;20019;-29
2022/11/03 08:43:58;;;;;;;;;;;;;;;6.85;70.36;100914.66;5035716;28;19914;-29
2022/11/03 08:46:23;;;;;;;;;;;;;;;6.90;70.48;100906.81;5041048;28;19916;-30
2022/11/03 08:48:49;;;;;;;;;;;;;;;6.94;70.08;100908.63;5047694;28;19917;-31
2022/11/03 08:51:14;;;;;;;;;;;;;;;6.99;70.42;100906.03;5055796;28;19919;-31
2022/11/03 08:53:41;;;;;;;;;;;;;;;7.04;70.77;100902.59;5055494;28;20300;-30
2022/11/03 08:56:06;;;;;;;;;;;;;;;7.11;70.63;100905.28;5056129;28;19913;-31
2022/11/03 08:58:31;;;;;;;;;;;;;;;7.15;70.59;100897.47;5056388;28;19913;-31
2022/11/03 09:00:57;;;;;;;;;;;;;;;7.21;70.72;100894.00;5055578;28;19982;-32
2022/11/03 09:03:22;;;;;;;;;;;;;;;7.27;70.85;100885.31;5055867;28;19920;-31
2022/11/03 09:05:50;;;;;;;;;;;;;;;7.32;70.64;100881.84;5054749;28;19920;-31
2022/11/03 09:08:16;;;;;;;;;;;;;;;7.38;70.86;100877.50;5055020;28;20149;-30
2022/11/03 09:10:41;;;;;;;;;;;;;;;7.43;70.68;100875.78;5055516;28;19912;-31
2022/11/03 09:13:06;;;;;;;;;;;;;;;7.47;70.79;100872.31;5054284;28;20375;-33
2022/11/03 09:15:32;;;;;;;;;;;;;;;7.53;70.85;100877.63;5054117;28;19913;-31
2022/11/03 09:17:57;;;;;;;;;;;;;;;7.57;70.91;100868.91;5037536;28;19913;-32
2022/11/03 09:20:22;;;;;;;;;;;;;;;7.63;70.93;100867.16;5055297;28;20393;-32
2022/11/03 09:22:47;;;;;;;;;;;;;;;7.68;70.98;100865.47;5055217;28;19963;-32
2022/11/03 09:25:13;;;;;;;;;;;;;;;7.73;71.20;100855.00;5033767;28;20071;-33
2022/11/03 09:27:38;;;;;;;;;;;;;;;7.76;71.05;100853.25;5017690;28;19990;-32
2022/11/03 09:30:04;;;;;;;;;;;;;;;7.81;71.05;100842.78;5017332;28;19913;-30
2022/11/03 09:32:30;;;;;;;;;;;;;;;7.86;70.92;100842.78;5035005;28;19920;-31
2022/11/03 09:34:55;;;;;;;;;;;;;;;7.91;70.85;100835.81;5045060;28;19939;-32
2022/11/03 09:37:21;;;;;;;;;;;;;;;7.96;70.82;100834.09;5055177;28;19913;-32
2022/11/03 09:39:47;;;;;;;;;;;;;;;7.99;71.07;100831.47;5055170;28;19958;-32
2022/11/03 09:42:12;;;;;;;;;;;;;;;8.04;71.09;100827.09;5054854;28;20003;-32
2022/11/03 09:44:37;;;;;;;;;;;;;;;8.08;71.01;100825.41;5055398;28;19913;-33
2022/11/03 09:47:03;;;;;;;;;;;;;;;8.12;71.32;100813.13;5036766;28;20014;-32
2022/11/03 09:49:30;;;;;;;;;;;;;;;8.16;70.92;100814.88;5037500;28;19916;-31
2022/11/03 09:51:56;;;;;;;;;;;;;;;8.20;71.34;100812.28;5037749;28;19919;-31
2022/11/03 09:54:22;;;;;;;;;;;;;;;8.25;71.25;100804.44;5036985;28;19995;-31
2022/11/03 09:56:47;;;;;;;;;;;;;;;8.29;71.65;100795.69;5036966;28;19962;-32
2022/11/03 09:59:13;;;;;;;;;;;;;;;8.34;71.38;100787.81;5054751;28;19962;-33
2022/11/03 10:01:39;;;;;;;;;;;;;;;8.38;71.64;100786.94;5054529;28;19939;-32
2022/11/03 10:04:04;;;;;;;;;;;;;;;8.43;71.54;100781.66;5054488;28;19912;-32
2022/11/03 10:06:29;;;;;;;;;;;;;;;8.47;71.81;100788.69;5055080;28;19923;-33
2022/11/03 10:08:55;;;;;;;;;;;;;;;8.51;71.82;100779.94;5036654;28;20378;-32
2022/11/03 10:11:20;;;;;;;;;;;;;;;8.56;71.78;100777.34;5019771;28;19939;-33
2022/11/03 10:13:47;;;;;;;;;;;;;;;8.60;71.70;100779.97;5045529;28;19936;-32
2022/11/03 10:16:14;;;;;;;;;;;;;;;8.64;71.88;100770.31;5016982;28;19940;-31
2022/11/03 10:18:39;;;;;;;;;;;;;;;8.69;72.07;100767.72;5019841;28;19924;-30
2022/11/03 10:21:06;;;;;;;;;;;;;;;8.73;71.75;100764.19;5036239;28;19916;-31
2022/11/03 10:23:34;;;;;;;;;;;;;;;8.77;71.63;100759.84;5019625;28;19951;-31
2022/11/03 10:26:07;;;;;;;;;;;;;;;8.80;71.93;100763.31;5053326;28;19912;-32
2022/11/03 10:28:34;;;;;;;;;;;;;;;8.86;71.53;100759.81;5016416;28;19960;-32
2022/11/03 10:31:00;;;;;;;;;;;;;;;8.89;71.72;100764.19;5034060;28;19913;-31
2022/11/03 10:33:35;;;;;;;;;;;;;;;8.93;71.81;100755.41;5040715;28;19986;-31
2022/11/03 10:36:24;;;;;;;;;;;;;;;8.97;71.94;100752.78;5052556;28;20282;-29
2022/11/03 10:38:50;;;;;;;;;;;;;;;9.02;72.00;100738.75;5035823;28;19963;-29
2022/11/03 10:41:16;;;;;;;;;;;;;;;9.06;71.85;100741.38;5025670;28;20386;-29
2022/11/03 10:43:54;;;;;;;;;;;;;;;9.10;71.95;100736.97;5053603;28;19975;-29
2022/11/03 10:46:21;;;;;;;;;;;;;;;9.15;72.39;100723.81;5035104;28;19913;-29
2022/11/03 10:49:05;;;;;;;;;;;;;;;9.19;72.25;100715.03;5053149;28;20467;-30
2022/11/03 10:51:31;;;;;;;;;;;;;;;9.25;72.70;100717.66;5052694;28;19920;-30
2022/11/03 10:53:56;;;;;;;;;;;;;;;9.30;72.72;100707.13;5052870;28;19913;-30
2022/11/03 10:56:22;;;;;;;;;;;;;;;9.35;72.58;100708.88;5052704;28;20392;-30
2022/11/03 10:58:47;;;;;;;;;;;;;;;9.42;72.45;100706.19;5052165;28;19966;-30
2022/11/03 11:01:12;;;;;;;;;;;;;;;9.46;72.67;100705.28;5052172;28;20266;-30
2022/11/03 11:03:39;;;;;;;;;;;;;;;9.54;73.46;100706.13;5034964;28;19928;-30
2022/11/03 11:06:04;;;;;;;;;;;;;;;9.60;73.17;100702.59;5052301;28;19954;-30
2022/11/03 11:08:30;;;;;;;;;;;;;;;9.65;73.51;100698.22;5034761;28;19964;-30
2022/11/03 11:10:55;;;;;;;;;;;;;;;9.71;73.58;100699.94;5052238;28;19920;-29
2022/11/03 11:13:20;;;;;;;;;;;;;;;9.77;74.02;100689.34;5032780;28;19924;-29
2022/11/03 11:15:46;;;;;;;;;;;;;;;9.85;74.21;100694.59;5032546;28;20374;-29
2022/11/03 11:18:26;;;;;;;;;;;;;;;9.91;74.07;100684.03;5032368;28;19952;-29
2022/11/03 11:20:52;;;;;;;;;;;;;;;9.98;74.27;100674.31;5038035;28;19917;-29
2022/11/03 11:23:26;;;;;;;;;;;;;;;10.05;74.10;100669.88;5052423;28;20290;-29
2022/11/03 11:26:05;;;;;;;;;;;;;;;10.12;73.96;100680.38;5051950;28;19970;-29
2022/11/03 11:28:30;;;;;;;;;;;;;;;10.21;74.22;100665.38;5052286;28;19968;-29
2022/11/03 11:30:56;;;;;;;;;;;;;;;10.29;74.46;100657.38;5052054;28;20377;-29
2022/11/03 11:33:22;;;;;;;;;;;;;;;10.37;74.00;100652.94;5052313;28;19960;-29
2022/11/03 11:35:47;;;;;;;;;;;;;;;10.43;73.82;100649.38;5051926;28;20389;-29
2022/11/03 11:38:31;;;;;;;;;;;;;;;10.52;74.16;100649.31;5052390;28;20320;-29
2022/11/03 11:40:56;;;;;;;;;;;;;;;10.60;74.04;100652.75;5051771;28;19917;-29
2022/11/03 11:43:25;;;;;;;;;;;;;;;10.68;73.85;100641.25;5052028;28;20308;-29
2022/11/03 11:46:09;;;;;;;;;;;;;;;10.76;73.63;100632.38;5052122;28;20370;-29
2022/11/03 11:48:35;;;;;;;;;;;;;;;10.83;73.61;100627.91;5051796;28;19924;-29
2022/11/03 11:51:00;;;;;;;;;;;;;;;10.91;73.10;100614.63;5051416;28;19932;-29
2022/11/03 11:53:25;;;;;;;;;;;;;;;10.96;72.93;100601.38;5052069;28;19912;-29
2022/11/03 11:55:51;;;;;;;;;;;;;;;11.01;72.80;100596.94;5052101;28;20377;-29
2022/11/03 11:58:22;;;;;;;;;;;;;;;11.06;72.48;100597.72;5051200;28;19928;-30
2022/11/03 12:00:51;;;;;;;;;;;;;;;11.11;72.62;100593.25;5051585;28;20412;-30
2022/11/03 12:03:16;;;;;;;;;;;;;;;11.18;72.55;100593.19;5051820;28;19913;-30
2022/11/03 12:05:42;;;;;;;;;;;;;;;11.23;72.73;100579.03;5033998;28;19913;-30
2022/11/03 12:08:17;;;;;;;;;;;;;;;11.29;72.71;100583.38;5033813;28;19917;-30
2022/11/03 12:10:50;;;;;;;;;;;;;;;11.36;72.54;100579.75;5051124;28;20348;-30
2022/11/03 12:13:35;;;;;;;;;;;;;;;11.41;72.63;100569.97;5053280;28;19946;-30
2022/11/03 12:16:01;;;;;;;;;;;;;;;11.48;72.19;100564.63;5056202;28;19996;-30
2022/11/03 12:18:33;;;;;;;;;;;;;;;11.52;72.01;100563.69;5055642;28;20012;-30
2022/11/03 12:21:00;;;;;;;;;;;;;;;11.57;72.16;100556.56;5037679;28;19916;-30
2022/11/03 12:23:38;;;;;;;;;;;;;;;11.63;71.89;100545.91;5056140;28;19912;-30
2022/11/03 12:26:04;;;;;;;;;;;;;;;11.70;71.91;100546.66;5055754;28;19919;-30
2022/11/03 12:28:33;;;;;;;;;;;;;;;11.76;71.97;100536.00;5049314;28;19921;-30
2022/11/03 12:30:59;;;;;;;;;;;;;;;11.85;71.97;100531.47;5037505;28;19916;-30
2022/11/03 12:33:25;;;;;;;;;;;;;;;11.89;72.06;100515.53;5055723;28;19912;-30
2022/11/03 12:35:50;;;;;;;;;;;;;;;11.98;71.92;100508.34;5055454;28;20139;-30
2022/11/03 12:38:16;;;;;;;;;;;;;;;12.04;71.60;100510.91;5055676;28;19912;-30
2022/11/03 12:40:41;;;;;;;;;;;;;;;12.11;71.31;100504.63;5054994;28;19935;-30
2022/11/03 12:43:07;;;;;;;;;;;;;;;12.15;71.59;100494.88;5054953;28;20007;-30
2022/11/03 12:45:32;;;;;;;;;;;;;;;12.19;71.18;100497.44;5055667;28;19913;-30
2022/11/03 12:47:57;;;;;;;;;;;;;;;12.24;71.01;100499.13;5037360;28;19959;-30
2022/11/03 12:50:23;;;;;;;;;;;;;;;12.28;71.03;100495.50;5055542;28;19970;-31
2022/11/03 12:52:48;;;;;;;;;;;;;;;12.32;70.82;100491.91;5055112;28;19913;-30
2022/11/03 12:55:13;;;;;;;;;;;;;;;12.35;70.88;100481.28;5037248;28;19917;-31
2022/11/03 12:57:39;;;;;;;;;;;;;;;12.37;70.93;100468.00;5054674;28;19917;-30
2022/11/03 13:00:05;;;;;;;;;;;;;;;12.40;70.72;100468.81;5054955;28;19971;-30
2022/11/03 13:02:30;;;;;;;;;;;;;;;12.41;70.59;100467.91;5054786;28;20033;-30